Time;durP1;ratioP1;P1;durP2;ratioP2;P2;SDS_P1;SDS_P2;PMS_P1;PMS_P2;Temp;Humidity;BMP_temperature;BMP_pressure;BME280_temperature;BME280_humidity;BME280_pressure;Samples;Min_cycle;Max_cycle;Signal;HPM_P1;HPM_P2
2023/04/27 00:01:05;;;;;;;10.20;4.57;;;3.20;88.50;;;;;;5073592;28;20041;-46
2023/04/27 00:03:32;;;;;;;8.00;4.65;;;3.20;88.50;;;;;;5074435;28;20052;-47
2023/04/27 00:05:57;;;;;;;7.53;3.88;;;3.20;88.50;;;;;;5047182;28;20029;-47
2023/04/27 00:08:27;;;;;;;7.90;4.65;;;3.10;88.40;;;;;;5054630;28;20083;-47
2023/04/27 00:10:52;;;;;;;6.80;3.95;;;3.10;88.30;;;;;;5054449;28;20033;-47
2023/04/27 00:13:19;;;;;;;6.70;3.85;;;3.10;88.30;;;;;;5054459;28;20043;-46
2023/04/27 00:15:47;;;;;;;7.97;3.83;;;3.10;88.20;;;;;;5036747;28;20028;-48
2023/04/27 00:18:15;;;;;;;11.02;3.85;;;3.00;88.20;;;;;;5053894;28;20401;-46
2023/04/27 00:20:43;;;;;;;9.30;4.30;;;3.00;88.20;;;;;;5054265;28;20049;-48
2023/04/27 00:23:09;;;;;;;6.60;3.88;;;2.90;88.10;;;;;;5054566;28;20048;-46
2023/04/27 00:25:37;;;;;;;6.75;3.70;;;2.90;88.20;;;;;;5054309;28;20320;-48
2023/04/27 00:28:03;;;;;;;10.50;4.50;;;2.90;88.30;;;;;;5053946;28;20033;-48
2023/04/27 00:30:30;;;;;;;6.47;4.10;;;2.90;88.40;;;;;;5054249;28;20032;-47
2023/04/27 00:32:57;;;;;;;6.93;4.40;;;2.80;88.50;;;;;;5054211;28;20422;-46
2023/04/27 00:35:23;;;;;;;9.40;4.03;;;2.80;88.50;;;;;;5036619;28;20029;-49
2023/04/27 00:37:52;;;;;;;7.10;4.20;;;2.80;88.50;;;;;;5053988;28;20036;-46
2023/04/27 00:40:22;;;;;;;7.97;4.88;;;2.80;88.50;;;;;;5052752;28;20028;-47
2023/04/27 00:42:50;;;;;;;6.35;3.30;;;2.70;88.70;;;;;;5053115;28;20336;-47
2023/04/27 00:45:15;;;;;;;5.88;3.80;;;2.70;88.70;;;;;;5054002;28;20047;-46
2023/04/27 00:47:43;;;;;;;8.15;4.78;;;2.70;88.70;;;;;;5055602;28;20041;-46
2023/04/27 00:50:18;;;;;;;8.70;3.85;;;2.70;88.80;;;;;;5073842;28;20107;-46
2023/04/27 00:52:46;;;;;;;6.85;4.22;;;2.70;88.80;;;;;;5038149;28;20478;-46
2023/04/27 00:55:14;;;;;;;10.15;4.72;;;2.70;88.80;;;;;;5036214;28;20370;-46
2023/04/27 00:57:40;;;;;;;8.98;4.25;;;2.70;88.80;;;;;;5052862;28;20110;-46
2023/04/27 01:00:10;;;;;;;7.93;4.15;;;2.80;88.90;;;;;;5053084;28;20061;-47
2023/04/27 01:02:42;;;;;;;10.82;5.97;;;2.70;88.80;;;;;;5053812;28;20040;-45
2023/04/27 01:05:11;;;;;;;7.15;4.05;;;2.70;88.90;;;;;;5053882;28;20059;-45
2023/04/27 01:07:41;;;;;;;8.30;4.97;;;2.70;88.90;;;;;;5035086;28;20374;-45
2023/04/27 01:10:07;;;;;;;7.20;3.83;;;2.80;88.80;;;;;;5052188;28;20028;-44
2023/04/27 01:12:35;;;;;;;11.55;5.18;;;2.70;88.70;;;;;;5053539;28;20048;-44
2023/04/27 01:15:02;;;;;;;8.73;4.22;;;2.70;88.80;;;;;;5052189;28;20382;-43
2023/04/27 01:17:28;;;;;;;7.20;3.55;;;2.70;88.80;;;;;;5035992;28;20060;-43
2023/04/27 01:19:56;;;;;;;7.03;4.20;;;2.70;88.70;;;;;;5035550;28;20024;-43
2023/04/27 01:22:25;;;;;;;7.17;4.77;;;2.70;88.80;;;;;;5053145;28;20584;-43
2023/04/27 01:24:52;;;;;;;8.38;3.83;;;2.60;88.70;;;;;;5052739;28;20037;-43
2023/04/27 01:27:19;;;;;;;7.53;3.83;;;2.60;88.80;;;;;;5052491;28;20056;-43
2023/04/27 01:29:47;;;;;;;7.32;4.25;;;2.60;88.90;;;;;;5052986;28;20090;-44
2023/04/27 01:32:13;;;;;;;5.25;3.28;;;2.50;89.00;;;;;;5053323;28;20116;-44
2023/04/27 01:34:39;;;;;;;6.97;4.35;;;2.60;89.20;;;;;;5052901;28;20100;-44
2023/04/27 01:37:07;;;;;;;6.70;4.22;;;2.60;89.20;;;;;;5053089;28;20024;-43
2023/04/27 01:39:37;;;;;;;6.57;4.25;;;2.60;89.30;;;;;;5052892;28;20111;-43
2023/04/27 01:42:03;;;;;;;8.80;4.07;;;2.60;89.40;;;;;;5053060;28;20100;-44
2023/04/27 01:44:29;;;;;;;6.10;3.47;;;2.60;89.10;;;;;;5052995;28;20439;-45
2023/04/27 01:47:00;;;;;;;10.00;4.05;;;2.60;89.00;;;;;;5052909;28;20086;-43
2023/04/27 01:49:28;;;;;;;10.32;3.55;;;2.50;89.00;;;;;;5052855;28;20627;-43
2023/04/27 01:51:59;;;;;;;6.32;3.85;;;2.50;89.00;;;;;;5052775;28;20500;-43
2023/04/27 01:54:26;;;;;;;7.05;3.45;;;2.50;89.20;;;;;;5052779;28;20064;-44
2023/04/27 01:56:54;;;;;;;7.97;3.40;;;2.50;89.30;;;;;;5035220;28;20517;-43
2023/04/27 01:59:22;;;;;;;6.95;3.13;;;2.50;89.30;;;;;;5052882;28;20048;-43
2023/04/27 02:01:50;;;;;;;6.38;3.78;;;2.50;89.40;;;;;;5053203;28;20426;-43
2023/04/27 02:04:19;;;;;;;4.72;3.05;;;2.50;89.30;;;;;;5034746;28;20033;-43
2023/04/27 02:06:49;;;;;;;5.38;3.50;;;2.50;89.20;;;;;;5056072;28;20455;-43
2023/04/27 02:09:19;;;;;;;6.63;3.92;;;2.50;89.30;;;;;;5056560;28;20458;-43
2023/04/27 02:11:46;;;;;;;11.60;3.65;;;2.40;89.30;;;;;;5056828;28;20025;-43
2023/04/27 02:14:13;;;;;;;8.68;4.70;;;2.40;89.40;;;;;;5056592;28;20538;-43
2023/04/27 02:16:40;;;;;;;9.30;3.67;;;2.40;89.30;;;;;;5056215;28;20072;-42
2023/04/27 02:19:09;;;;;;;6.85;3.90;;;2.40;89.30;;;;;;5056377;28;20023;-43
2023/04/27 02:21:39;;;;;;;7.57;3.85;;;2.40;89.30;;;;;;5056193;28;20029;-43
2023/04/27 02:24:08;;;;;;;5.03;3.25;;;2.30;89.20;;;;;;5038584;28;20033;-42
2023/04/27 02:26:35;;;;;;;6.38;3.83;;;2.30;89.40;;;;;;5055224;28;20028;-43
2023/04/27 02:29:02;;;;;;;6.72;3.45;;;2.30;89.40;;;;;;5056451;28;20493;-43
2023/04/27 02:31:32;;;;;;;8.07;3.78;;;2.30;89.50;;;;;;5056483;28;20029;-43
2023/04/27 02:33:59;;;;;;;7.53;2.95;;;2.30;89.20;;;;;;5056551;28;20454;-45
2023/04/27 02:36:27;;;;;;;10.65;3.63;;;2.20;89.20;;;;;;5056282;28;20040;-43
2023/04/27 02:38:53;;;;;;;6.97;3.80;;;2.20;89.20;;;;;;5056333;28;20332;-44
2023/04/27 02:41:21;;;;;;;6.53;5.00;;;2.20;89.30;;;;;;5038833;28;20102;-44
2023/04/27 02:43:52;;;;;;;7.50;3.60;;;2.20;89.40;;;;;;5056056;28;20094;-43
2023/04/27 02:46:18;;;;;;;6.20;4.13;;;2.10;89.40;;;;;;5022341;28;20032;-43
2023/04/27 02:48:49;;;;;;;6.78;4.03;;;2.10;89.50;;;;;;5038420;28;20111;-43
2023/04/27 02:51:16;;;;;;;5.97;3.17;;;2.10;89.50;;;;;;5056044;28;20033;-43
2023/04/27 02:53:41;;;;;;;7.53;4.25;;;2.10;89.70;;;;;;5055108;28;20116;-44
2023/04/27 02:56:10;;;;;;;6.82;4.22;;;2.10;89.70;;;;;;5055795;28;20420;-43
2023/04/27 02:58:38;;;;;;;8.43;4.60;;;2.10;89.90;;;;;;5056338;28;20550;-43
2023/04/27 03:01:06;;;;;;;12.13;5.78;;;2.20;90.10;;;;;;5055998;28;20342;-43
2023/04/27 03:03:36;;;;;;;9.30;4.38;;;2.20;90.30;;;;;;5055782;28;20033;-42
2023/04/27 03:06:07;;;;;;;8.60;5.03;;;2.30;90.40;;;;;;5054616;28;20032;-44
2023/04/27 03:08:38;;;;;;;11.45;4.70;;;2.30;90.60;;;;;;5055935;28;20037;-44
2023/04/27 03:11:05;;;;;;;7.57;4.55;;;2.40;90.70;;;;;;5055780;28;20037;-44
2023/04/27 03:13:40;;;;;;;6.68;4.13;;;2.40;90.60;;;;;;5057849;28;20037;-43
2023/04/27 03:16:09;;;;;;;9.23;5.63;;;2.40;90.60;;;;;;5074972;28;20029;-43
2023/04/27 03:18:36;;;;;;;9.18;4.13;;;2.50;90.50;;;;;;5041476;28;20033;-44
2023/04/27 03:21:22;;;;;;;7.53;4.82;;;2.50;90.50;;;;;;5075705;28;20107;-43
2023/04/27 03:23:53;;;;;;;7.53;4.22;;;2.50;90.50;;;;;;5075194;28;20086;-44
2023/04/27 03:26:19;;;;;;;6.47;3.92;;;2.50;90.50;;;;;;5071641;28;20035;-45
2023/04/27 03:28:46;;;;;;;8.85;4.97;;;2.50;90.40;;;;;;5054705;28;20033;-44
2023/04/27 03:31:14;;;;;;;10.10;4.85;;;2.50;90.30;;;;;;5055216;28;20446;-44
2023/04/27 03:33:41;;;;;;;9.65;4.25;;;2.60;90.30;;;;;;5053699;28;20036;-45
2023/04/27 03:36:10;;;;;;;7.72;4.28;;;2.60;90.30;;;;;;5037768;28;20068;-44
2023/04/27 03:38:47;;;;;;;9.75;4.80;;;2.70;90.30;;;;;;5055052;28;20033;-45
2023/04/27 03:41:15;;;;;;;9.60;4.20;;;2.70;90.30;;;;;;5037573;28;20037;-46
2023/04/27 03:43:44;;;;;;;8.45;4.45;;;2.70;90.30;;;;;;5037673;28;20043;-46
2023/04/27 03:46:10;;;;;;;10.88;4.13;;;2.80;90.20;;;;;;5054864;28;20384;-49
2023/04/27 03:48:36;;;;;;;6.68;4.82;;;2.90;90.20;;;;;;5054788;28;20090;-48
2023/04/27 03:51:03;;;;;;;6.82;4.28;;;2.90;90.20;;;;;;5037504;28;20037;-47
2023/04/27 03:53:30;;;;;;;10.82;5.40;;;2.90;90.10;;;;;;5054913;28;20076;-46
2023/04/27 03:55:56;;;;;;;9.80;5.20;;;2.90;90.10;;;;;;5037144;28;20390;-49
2023/04/27 03:58:21;;;;;;;7.28;4.93;;;3.00;89.90;;;;;;5037122;28;20033;-48
2023/04/27 04:00:47;;;;;;;11.02;6.07;;;3.00;90.00;;;;;;5036043;28;20037;-47
2023/04/27 04:03:15;;;;;;;10.13;5.05;;;3.00;90.10;;;;;;5037404;28;20033;-46
2023/04/27 04:05:42;;;;;;;8.00;4.45;;;3.10;90.10;;;;;;5037077;28;20021;-46
2023/04/27 04:08:09;;;;;;;8.10;4.57;;;3.10;90.00;;;;;;5054647;28;20021;-47
2023/04/27 04:10:35;;;;;;;19.50;5.93;;;3.20;90.00;;;;;;5054750;28;20036;-46
2023/04/27 04:13:02;;;;;;;8.00;4.28;;;3.20;89.90;;;;;;5037039;28;20025;-46
2023/04/27 04:15:31;;;;;;;9.20;4.60;;;3.20;89.70;;;;;;5054454;28;20032;-46
2023/04/27 04:17:58;;;;;;;7.45;4.28;;;3.10;89.50;;;;;;5054190;28;20456;-48
2023/04/27 04:20:29;;;;;;;7.97;3.95;;;3.10;89.50;;;;;;5036640;28;20056;-46
2023/04/27 04:22:55;;;;;;;11.57;4.57;;;3.00;89.50;;;;;;5054279;28;20516;-46
2023/04/27 04:25:24;;;;;;;8.15;4.65;;;3.00;89.30;;;;;;5036947;28;20029;-46
2023/04/27 04:27:50;;;;;;;7.50;4.13;;;2.90;89.30;;;;;;5053675;28;20104;-45
2023/04/27 04:30:21;;;;;;;7.20;4.60;;;2.90;89.30;;;;;;5053910;28;20124;-46
2023/04/27 04:32:50;;;;;;;7.28;4.60;;;2.90;89.40;;;;;;5054304;28;20370;-46
2023/04/27 04:35:18;;;;;;;7.35;4.10;;;2.90;89.40;;;;;;5053910;28;20025;-47
2023/04/27 04:37:44;;;;;;;6.50;4.07;;;2.90;89.30;;;;;;5036673;28;20072;-45
2023/04/27 04:40:11;;;;;;;8.88;4.30;;;2.90;89.40;;;;;;5053662;28;20060;-46
2023/04/27 04:42:40;;;;;;;8.40;4.28;;;2.90;89.40;;;;;;5053724;28;20036;-46
2023/04/27 04:45:07;;;;;;;7.75;4.15;;;2.90;89.30;;;;;;5053322;28;20026;-46
2023/04/27 04:47:33;;;;;;;9.02;4.72;;;2.90;89.20;;;;;;5053309;28;20033;-45
2023/04/27 04:50:01;;;;;;;7.20;4.38;;;2.80;89.10;;;;;;5052668;28;20052;-48
2023/04/27 04:52:31;;;;;;;6.70;4.85;;;2.90;89.00;;;;;;5053854;28;20025;-46
2023/04/27 04:54:57;;;;;;;6.70;4.18;;;2.80;89.00;;;;;;5053626;28;20040;-46
2023/04/27 04:57:23;;;;;;;9.55;4.28;;;2.90;89.20;;;;;;5053482;28;20481;-50
2023/04/27 04:59:49;;;;;;;10.00;4.38;;;3.00;88.90;;;;;;5053552;28;20028;-46
2023/04/27 05:02:17;;;;;;;6.88;4.00;;;3.10;89.10;;;;;;5053666;28;20111;-47
2023/04/27 05:04:44;;;;;;;7.95;4.03;;;3.30;88.80;;;;;;5036578;28;20482;-46
2023/04/27 05:07:11;;;;;;;6.72;3.53;;;3.40;88.40;;;;;;5036013;28;20033;-45
2023/04/27 05:09:38;;;;;;;5.75;3.70;;;3.60;87.70;;;;;;5019276;28;20024;-46
2023/04/27 05:12:03;;;;;;;6.70;4.25;;;3.90;87.70;;;;;;5035985;28;20803;-44
2023/04/27 05:14:31;;;;;;;8.43;4.15;;;4.00;87.00;;;;;;5053337;28;20055;-44
2023/04/27 05:16:57;;;;;;;7.55;4.47;;;4.30;86.50;;;;;;5052743;28;20040;-44
2023/04/27 05:19:24;;;;;;;12.63;5.32;;;4.40;85.30;;;;;;5052579;28;20035;-44
2023/04/27 05:21:53;;;;;;;8.25;4.88;;;4.70;85.20;;;;;;5053386;28;20493;-45
2023/04/27 05:24:19;;;;;;;;;;;4.90;84.40;;;;;;5053570;28;20047;-46
2023/04/27 05:26:46;;;;;;;7.00;3.97;;;4.90;83.90;;;;;;5053175;28;19905;-45
2023/04/27 05:29:13;;;;;;;6.80;3.38;;;4.80;82.90;;;;;;5052961;28;20027;-46
2023/04/27 05:31:42;;;;;;;5.82;3.63;;;4.80;83.20;;;;;;5072457;28;20024;-44
2023/04/27 05:34:12;;;;;;;7.80;4.13;;;4.80;83.30;;;;;;5039445;28;20024;-44
2023/04/27 05:36:40;;;;;;;7.85;4.25;;;4.70;83.40;;;;;;5056004;28;20116;-43
2023/04/27 05:39:08;;;;;;;7.80;4.28;;;4.80;83.90;;;;;;5059727;28;20025;-44
2023/04/27 05:41:35;;;;;;;7.78;3.92;;;4.80;83.60;;;;;;5035744;28;20037;-44
2023/04/27 05:44:02;;;;;;;5.65;4.38;;;4.90;83.40;;;;;;5052816;28;20056;-43
2023/04/27 05:46:29;;;;;;;9.80;4.45;;;5.10;83.50;;;;;;5053031;28;20028;-43
2023/04/27 05:48:56;;;;;;;8.73;4.35;;;5.30;83.60;;;;;;5052638;28;20029;-43
2023/04/27 05:51:24;;;;;;;6.43;4.53;;;5.50;83.20;;;;;;5052717;28;20041;-44
2023/04/27 05:53:54;;;;;;;5.90;4.18;;;5.70;82.90;;;;;;5035498;28;20025;-44
2023/04/27 05:56:22;;;;;;;6.55;3.83;;;5.80;83.10;;;;;;5052875;28;20071;-45
2023/04/27 05:58:49;;;;;;;7.57;4.20;;;5.90;82.10;;;;;;5052887;28;20056;-47
2023/04/27 06:01:15;;;;;;;6.03;4.00;;;6.10;82.40;;;;;;5052643;28;20025;-45
2023/04/27 06:03:42;;;;;;;8.88;3.97;;;6.30;82.70;;;;;;5052916;28;20028;-43
2023/04/27 06:06:08;;;;;;;5.72;3.88;;;6.40;82.20;;;;;;5051686;28;20029;-43
2023/04/27 06:08:36;;;;;;;7.97;3.83;;;6.50;81.70;;;;;;5052762;28;20498;-46
2023/04/27 06:11:02;;;;;;;6.95;4.60;;;6.50;82.00;;;;;;5052760;28;20033;-44
2023/04/27 06:13:30;;;;;;;9.82;4.20;;;6.60;82.00;;;;;;5051914;28;20091;-43
2023/04/27 06:16:02;;;;;;;7.93;4.43;;;6.50;81.60;;;;;;5033709;28;20025;-43
2023/04/27 06:18:30;;;;;;;7.60;4.32;;;6.50;82.20;;;;;;5034969;28;20025;-43
2023/04/27 06:21:00;;;;;;;6.32;4.43;;;6.60;82.80;;;;;;5052809;28;20064;-44
2023/04/27 06:23:26;;;;;;;7.07;4.22;;;6.70;82.50;;;;;;5052741;28;20055;-44
2023/04/27 06:25:54;;;;;;;7.20;4.60;;;6.70;82.70;;;;;;5052661;28;20057;-42
2023/04/27 06:28:21;;;;;;;9.85;6.65;;;6.80;82.80;;;;;;5052434;28;20043;-43
2023/04/27 06:30:48;;;;;;;8.52;5.03;;;6.80;82.30;;;;;;5052376;28;20040;-44
2023/04/27 06:33:16;;;;;;;8.40;4.53;;;6.80;82.40;;;;;;5035064;28;20017;-44
2023/04/27 06:35:44;;;;;;;9.82;4.55;;;6.80;82.50;;;;;;5046521;28;20048;-43
2023/04/27 06:38:11;;;;;;;6.15;4.15;;;6.90;83.10;;;;;;5052851;28;20472;-43
2023/04/27 06:40:40;;;;;;;8.05;4.82;;;6.90;83.20;;;;;;5052186;28;20028;-44
2023/04/27 06:43:18;;;;;;;8.55;4.60;;;6.90;82.50;;;;;;5052384;28;20029;-45
2023/04/27 06:45:43;;;;;;;8.13;4.28;;;6.90;83.10;;;;;;5035114;28;20393;-46
2023/04/27 06:48:10;;;;;;;7.55;4.90;;;6.90;83.40;;;;;;5052270;28;20116;-43
2023/04/27 06:50:36;;;;;;;8.30;3.97;;;6.90;83.70;;;;;;5052490;28;20476;-44
2023/04/27 06:53:08;;;;;;;9.00;5.32;;;7.10;83.80;;;;;;5055312;28;20033;-42
2023/04/27 06:55:35;;;;;;;10.65;4.60;;;7.20;83.40;;;;;;5038447;28;20116;-43
2023/04/27 06:58:03;;;;;;;6.53;3.47;;;7.30;83.90;;;;;;5038178;28;20029;-44
2023/04/27 07:00:32;;;;;;;6.70;3.13;;;7.60;83.70;;;;;;5055960;28;20025;-43
2023/04/27 07:03:01;;;;;;;10.48;3.72;;;7.90;83.40;;;;;;5055664;28;20035;-43
2023/04/27 07:05:33;;;;;;;6.80;3.67;;;8.20;82.80;;;;;;5055847;28;20057;-42
2023/04/27 07:08:03;;;;;;;6.60;3.35;;;8.40;80.90;;;;;;5055472;28;20474;-43
2023/04/27 07:10:29;;;;;;;7.05;4.03;;;8.60;79.80;;;;;;5055560;28;20033;-45
2023/04/27 07:12:57;;;;;;;6.63;2.80;;;8.60;78.50;;;;;;5037723;28;20457;-42
2023/04/27 07:15:24;;;;;;;10.35;3.75;;;8.90;78.90;;;;;;5055260;28;20023;-43
2023/04/27 07:17:55;;;;;;;6.30;2.65;;;9.00;76.70;;;;;;5055176;28;20075;-43
2023/04/27 07:20:21;;;;;;;5.55;2.63;;;9.20;75.80;;;;;;5053073;28;20052;-42
2023/04/27 07:22:51;;;;;;;5.80;2.85;;;9.30;74.70;;;;;;5037565;28;20029;-42
2023/04/27 07:25:19;;;;;;;6.07;2.70;;;9.50;73.80;;;;;;5054921;28;20095;-43
2023/04/27 07:27:48;;;;;;;6.75;2.60;;;9.40;72.30;;;;;;5038043;28;20365;-42
2023/04/27 07:30:16;;;;;;;5.40;2.55;;;9.20;71.70;;;;;;5055146;28;20465;-42
2023/04/27 07:32:44;;;;;;;8.68;3.53;;;9.10;73.10;;;;;;5055253;28;20052;-42
2023/04/27 07:35:10;;;;;;;7.35;3.10;;;9.00;74.60;;;;;;5055468;28;20442;-42
2023/04/27 07:37:37;;;;;;;7.68;3.80;;;9.10;75.10;;;;;;5055494;28;20044;-43
2023/04/27 07:40:13;;;;;;;5.82;3.13;;;9.40;75.70;;;;;;5037748;28;20033;-43
2023/04/27 07:42:40;;;;;;;6.20;3.03;;;9.90;73.20;;;;;;5055133;28;20037;-43
2023/04/27 07:45:08;;;;;;;8.10;2.58;;;10.30;71.30;;;;;;5042748;28;20025;-43
2023/04/27 07:47:34;;;;;;;6.78;2.90;;;10.70;72.20;;;;;;5037602;28;20043;-43
2023/04/27 07:50:05;;;;;;;5.38;2.67;;;11.30;68.70;;;;;;5037111;28;20041;-44
2023/04/27 07:52:32;;;;;;;4.57;2.17;;;11.00;65.40;;;;;;5054727;28;20045;-44
2023/04/27 07:54:57;;;;;;;7.43;2.50;;;11.10;65.80;;;;;;5054708;28;20439;-44
2023/04/27 07:57:23;;;;;;;6.30;2.60;;;11.10;65.30;;;;;;5037214;28;20167;-43
2023/04/27 07:59:50;;;;;;;7.78;2.70;;;11.20;65.70;;;;;;5054837;28;20029;-43
2023/04/27 08:02:20;;;;;;;4.13;2.20;;;11.50;65.60;;;;;;5037257;28;20021;-43
2023/04/27 08:04:47;;;;;;;7.45;2.60;;;12.00;64.80;;;;;;5054820;28;20025;-44
2023/04/27 08:07:16;;;;;;;8.40;2.95;;;12.60;62.70;;;;;;5037241;28;20056;-43
2023/04/27 08:09:43;;;;;;;4.80;2.10;;;13.10;60.20;;;;;;5054524;28;20071;-44
2023/04/27 08:12:09;;;;;;;5.93;3.25;;;12.80;59.40;;;;;;5054839;28;20052;-44
2023/04/27 08:14:38;;;;;;;7.40;2.65;;;12.90;59.20;;;;;;5037165;28;20033;-44
2023/04/27 08:17:06;;;;;;;5.07;2.13;;;13.10;58.30;;;;;;5054510;28;20770;-44
2023/04/27 08:19:39;;;;;;;6.38;2.25;;;12.50;58.40;;;;;;5054319;28;20032;-43
2023/04/27 08:22:08;;;;;;;5.15;2.70;;;12.30;60.40;;;;;;5034887;28;20033;-44
2023/04/27 08:24:36;;;;;;;7.78;2.50;;;12.50;61.20;;;;;;5054451;28;20033;-44
2023/04/27 08:27:05;;;;;;;6.10;2.47;;;12.90;58.50;;;;;;5036774;28;20427;-43
2023/04/27 08:29:31;;;;;;;6.68;2.47;;;13.60;58.90;;;;;;5036765;28;20474;-44
2023/04/27 08:32:00;;;;;;;9.65;2.75;;;14.20;58.00;;;;;;5054197;28;20040;-45
2023/04/27 08:34:28;;;;;;;6.43;3.15;;;14.40;57.20;;;;;;5053546;28;20195;-44
2023/04/27 08:36:59;;;;;;;5.95;2.40;;;14.40;54.80;;;;;;5036744;28;20068;-44
2023/04/27 08:39:26;;;;;;;5.30;2.13;;;13.90;55.60;;;;;;5037441;28;20112;-43
2023/04/27 08:41:54;;;;;;;6.00;2.78;;;13.40;55.50;;;;;;5054200;28;20029;-44
2023/04/27 08:44:22;;;;;;;5.53;2.35;;;12.40;55.50;;;;;;5053913;28;20033;-44
2023/04/27 08:46:52;;;;;;;3.80;2.65;;;11.90;57.30;;;;;;5054111;28;20179;-44
2023/04/27 08:49:19;;;;;;;4.28;2.30;;;11.50;59.20;;;;;;5019961;28;20037;-44
2023/04/27 08:51:48;;;;;;;5.50;2.75;;;12.00;62.20;;;;;;5053751;28;20064;-44
2023/04/27 08:54:15;;;;;;;6.55;2.60;;;13.00;60.90;;;;;;5053594;28;20024;-44
2023/04/27 08:56:41;;;;;;;4.57;2.55;;;13.00;58.20;;;;;;5053942;28;20033;-44
2023/04/27 08:59:17;;;;;;;5.40;2.60;;;13.10;58.70;;;;;;5053689;28;20158;-44
2023/04/27 09:01:45;;;;;;;5.95;2.80;;;13.80;60.00;;;;;;5036701;28;20454;-45
2023/04/27 09:04:11;;;;;;;8.20;3.00;;;14.00;54.00;;;;;;5036518;28;20041;-46
2023/04/27 09:06:38;;;;;;;5.22;2.47;;;14.00;54.00;;;;;;5053599;28;20108;-44
2023/04/27 09:09:08;;;;;;;5.18;2.75;;;14.30;52.70;;;;;;5053514;28;20037;-45
2023/04/27 09:11:39;;;;;;;6.78;2.55;;;14.70;52.40;;;;;;5053521;28;20041;-45
2023/04/27 09:14:16;;;;;;;6.50;2.85;;;14.80;52.50;;;;;;5053134;28;20438;-46
2023/04/27 09:16:58;;;;;;;4.45;2.75;;;14.40;52.70;;;;;;5053427;28;20378;-46
2023/04/27 09:19:26;;;;;;;7.97;2.90;;;13.80;53.40;;;;;;5036186;28;20400;-45
2023/04/27 09:22:08;;;;;;;5.07;3.40;;;13.10;51.70;;;;;;5035910;28;20037;-47
2023/04/27 09:24:37;;;;;;;6.82;3.45;;;12.70;53.70;;;;;;5020344;28;20059;-45
2023/04/27 09:27:05;;;;;;;4.60;2.85;;;12.20;55.10;;;;;;5053392;28;20031;-45
2023/04/27 09:29:33;;;;;;;7.75;2.97;;;11.90;56.70;;;;;;5035377;28;20063;-45
2023/04/27 09:32:00;;;;;;;6.57;3.20;;;11.90;57.80;;;;;;5035794;28;20431;-44
2023/04/27 09:34:38;;;;;;;4.40;3.17;;;11.70;57.50;;;;;;5052933;28;20033;-46
2023/04/27 09:37:09;;;;;;;4.93;3.05;;;11.60;57.50;;;;;;5052997;28;20021;-45
2023/04/27 09:39:37;;;;;;;5.10;3.10;;;11.60;56.40;;;;;;5053037;28;20553;-45
2023/04/27 09:42:07;;;;;;;5.20;3.05;;;11.70;58.20;;;;;;5053124;28;20492;-44
2023/04/27 09:44:38;;;;;;;12.48;3.45;;;11.70;56.80;;;;;;5052998;28;20521;-45
2023/04/27 09:47:13;;;;;;;6.05;3.60;;;11.50;57.20;;;;;;5052872;28;20029;-45
2023/04/27 09:49:40;;;;;;;4.90;3.40;;;11.40;58.10;;;;;;5052855;28;20041;-47
2023/04/27 09:52:09;;;;;;;4.95;3.05;;;11.40;58.10;;;;;;5053104;28;20017;-44
2023/04/27 09:54:36;;;;;;;8.00;3.83;;;11.60;57.40;;;;;;5052968;28;20025;-45
2023/04/27 09:57:21;;;;;;;5.45;3.38;;;11.90;59.10;;;;;;5052887;28;20021;-45
2023/04/27 10:00:37;;;;;;;6.50;3.40;;;12.20;56.90;;;;;;5020681;28;20040;-44
2023/04/27 10:03:40;;;;;;;6.50;3.67;;;12.20;55.80;;;;;;5002311;28;20135;-47
2023/04/27 10:06:34;;;;;;;5.10;3.20;;;12.30;55.10;;;;;;5035337;28;20017;-45
2023/04/27 10:09:06;;;;;;;5.50;2.85;;;12.20;55.20;;;;;;5052478;28;20039;-45
2023/04/27 10:11:47;;;;;;;7.40;3.75;;;11.90;55.70;;;;;;5052773;28;20090;-45
2023/04/27 10:14:21;;;;;;;6.18;3.58;;;11.70;56.80;;;;;;5035908;28;20029;-45
2023/04/27 10:16:58;;;;;;;4.32;3.20;;;11.20;57.80;;;;;;5035059;28;20369;-44
2023/04/27 10:19:24;;;;;;;4.82;3.55;;;10.80;57.30;;;;;;5035182;28;20048;-45
2023/04/27 10:22:07;;;;;;;4.82;3.45;;;10.60;58.20;;;;;;5052286;28;20033;-45
2023/04/27 10:24:38;;;;;;;8.10;4.40;;;10.40;59.90;;;;;;5051981;28;20028;-44
2023/04/27 10:27:14;;;;;;;5.47;3.83;;;10.20;60.20;;;;;;5036259;28;20037;-45
2023/04/27 10:29:45;;;;;;;7.70;4.15;;;10.20;61.20;;;;;;5038729;28;20037;-44
2023/04/27 10:32:32;;;;;;;5.22;4.00;;;10.00;63.10;;;;;;5038987;28;20029;-45
2023/04/27 10:35:12;;;;;;;5.93;3.97;;;10.10;64.10;;;;;;5056608;28;20099;-46
2023/04/27 10:37:43;;;;;;;6.72;3.70;;;9.90;61.70;;;;;;5056427;28;20481;-46
2023/04/27 10:40:17;;;;;;;5.90;4.10;;;9.90;62.10;;;;;;5038650;28;20029;-46
2023/04/27 10:42:49;;;;;;;8.60;5.30;;;10.00;62.30;;;;;;5039711;28;20037;-45
2023/04/27 10:45:27;;;;;;;4.47;3.58;;;9.90;62.20;;;;;;5056133;28;20039;-44
2023/04/27 10:47:58;;;;;;;7.60;4.43;;;10.00;63.30;;;;;;5021939;28;20052;-44
2023/04/27 10:50:25;;;;;;;7.35;4.13;;;10.00;63.60;;;;;;5056238;28;20059;-45
2023/04/27 10:52:51;;;;;;;8.40;4.70;;;10.00;62.60;;;;;;5038860;28;20029;-44
2023/04/27 10:55:20;;;;;;;8.98;4.03;;;10.10;62.60;;;;;;5056147;28;20049;-45
2023/04/27 10:58:05;;;;;;;11.35;4.90;;;10.10;63.40;;;;;;5038610;28;20478;-44
2023/04/27 11:00:43;;;;;;;10.85;4.03;;;10.30;63.30;;;;;;5055814;28;20454;-44
2023/04/27 11:03:22;;;;;;;6.93;4.13;;;10.50;62.30;;;;;;5038648;28;20032;-47
2023/04/27 11:06:04;;;;;;;7.50;3.55;;;10.60;62.90;;;;;;5056096;28;20035;-45
2023/04/27 11:08:31;;;;;;;6.55;3.80;;;10.60;61.20;;;;;;5038762;28;20940;-44
2023/04/27 11:10:57;;;;;;;5.38;4.00;;;10.70;61.90;;;;;;5054976;28;20033;-46
2023/04/27 11:13:27;;;;;;;5.53;3.95;;;10.70;61.40;;;;;;5055803;28;20032;-45
2023/04/27 11:16:01;;;;;;;10.10;4.57;;;10.70;61.20;;;;;;5038187;28;20466;-45
2023/04/27 11:18:30;;;;;;;8.45;4.30;;;10.70;62.50;;;;;;5055234;28;20053;-45
2023/04/27 11:21:17;;;;;;;7.05;4.80;;;10.90;62.40;;;;;;5038077;28;20033;-45
2023/04/27 11:23:45;;;;;;;6.05;3.72;;;10.90;60.70;;;;;;5038245;28;20051;-45
2023/04/27 11:26:25;;;;;;;9.35;4.20;;;10.90;60.30;;;;;;5037793;28;20037;-46
2023/04/27 11:29:08;;;;;;;7.85;4.53;;;11.00;60.90;;;;;;5055612;28;20032;-45
2023/04/27 11:31:42;;;;;;;6.45;3.60;;;11.00;60.60;;;;;;5054593;28;20116;-45
2023/04/27 11:34:16;;;;;;;5.18;3.83;;;11.20;60.50;;;;;;5052223;28;20033;-44
2023/04/27 11:36:42;;;;;;;5.65;3.53;;;11.40;59.50;;;;;;5054056;28;20048;-45
2023/04/27 11:39:18;;;;;;;6.68;4.82;;;11.40;58.10;;;;;;5054231;28;20068;-44
2023/04/27 11:41:47;;;;;;;7.18;3.83;;;11.70;59.00;;;;;;5054354;28;20033;-49
2023/04/27 11:44:15;;;;;;;6.85;4.45;;;12.30;58.60;;;;;;5055089;28;20029;-45
2023/04/27 11:46:46;;;;;;;8.30;4.10;;;12.60;55.80;;;;;;5055378;28;20033;-45
2023/04/27 11:49:14;;;;;;;7.03;3.97;;;12.40;55.70;;;;;;5054471;28;20033;-46
2023/04/27 11:51:43;;;;;;;6.88;4.78;;;12.50;55.50;;;;;;5054257;28;20396;-46
2023/04/27 11:54:11;;;;;;;8.45;4.55;;;12.40;54.90;;;;;;5054743;28;20032;-46
2023/04/27 11:56:43;;;;;;;6.82;5.10;;;12.70;56.40;;;;;;5055175;28;20055;-46
2023/04/27 11:59:26;;;;;;;11.75;5.10;;;12.70;54.30;;;;;;5054774;28;20029;-46
2023/04/27 12:01:54;;;;;;;9.73;5.68;;;12.50;55.30;;;;;;5057258;28;20438;-45
2023/04/27 12:04:22;;;;;;;9.73;5.15;;;12.40;55.30;;;;;;5074865;28;20029;-45
2023/04/27 12:06:55;;;;;;;9.25;5.00;;;12.20;55.80;;;;;;5067214;28;20029;-45
2023/04/27 12:09:21;;;;;;;6.45;5.22;;;12.20;56.90;;;;;;5054521;28;20033;-45
2023/04/27 12:11:50;;;;;;;8.23;5.03;;;12.00;57.50;;;;;;5054304;28;20029;-45
2023/04/27 12:14:18;;;;;;;6.45;5.10;;;12.00;57.30;;;;;;5054672;28;20036;-46
2023/04/27 12:16:46;;;;;;;6.80;4.80;;;12.00;58.30;;;;;;5054746;28;20056;-44
2023/04/27 12:19:11;;;;;;;7.80;5.28;;;12.00;57.60;;;;;;5054478;28;20025;-44
2023/04/27 12:21:39;;;;;;;8.55;5.40;;;11.90;58.70;;;;;;5054798;28;20159;-48
2023/04/27 12:24:09;;;;;;;7.10;4.82;;;11.90;59.40;;;;;;5054559;28;20036;-47
2023/04/27 12:26:35;;;;;;;7.50;4.40;;;11.70;57.40;;;;;;5054865;28;20029;-46
2023/04/27 12:29:03;;;;;;;6.57;4.55;;;11.80;58.50;;;;;;5054412;28;20443;-45
2023/04/27 12:31:32;;;;;;;10.57;5.47;;;11.90;59.00;;;;;;5064058;28;20350;-45
2023/04/27 12:33:58;;;;;;;6.75;4.90;;;11.90;58.60;;;;;;5074653;28;20557;-46
2023/04/27 12:36:25;;;;;;;7.65;4.05;;;12.20;57.40;;;;;;5060357;28;20107;-47
2023/04/27 12:38:57;;;;;;;6.95;4.03;;;12.20;57.70;;;;;;5053222;28;20398;-49
2023/04/27 12:41:23;;;;;;;6.30;4.40;;;12.30;56.50;;;;;;5039278;28;20132;-46
2023/04/27 12:43:51;;;;;;;7.50;4.20;;;12.40;56.00;;;;;;5056728;28;20509;-45
2023/04/27 12:46:18;;;;;;;7.35;4.13;;;12.60;57.30;;;;;;5055297;28;20032;-46
2023/04/27 12:48:46;;;;;;;8.95;4.30;;;12.80;57.20;;;;;;5053427;28;20033;-45
2023/04/27 12:51:15;;;;;;;8.40;4.38;;;12.90;54.80;;;;;;5053801;28;20028;-45
2023/04/27 12:53:54;;;;;;;6.70;4.07;;;12.90;55.90;;;;;;5053706;28;20032;-45
2023/04/27 12:56:21;;;;;;;7.05;4.03;;;12.90;53.70;;;;;;5053772;28;20048;-45
2023/04/27 12:58:47;;;;;;;7.22;3.88;;;12.60;54.70;;;;;;5053881;28;20462;-45
2023/04/27 13:01:18;;;;;;;7.78;3.65;;;12.60;54.10;;;;;;5053322;28;20098;-44
2023/04/27 13:03:50;;;;;;;7.47;3.25;;;12.40;55.60;;;;;;5053902;28;20070;-45